createdAt,value
2022-12-28T00:01:53.931Z,7.00
2022-12-28T00:04:21.933Z,7.00
2022-12-28T00:06:50.622Z,7.10
2022-12-28T00:09:20.265Z,7.00
2022-12-28T00:11:48.468Z,7.00
2022-12-28T00:14:16.465Z,7.00
2022-12-28T00:16:44.996Z,7.00
2022-12-28T00:19:15.085Z,7.00
2022-12-28T00:21:43.267Z,7.00
2022-12-28T00:24:20.974Z,6.90
2022-12-28T00:26:49.330Z,7.00
2022-12-28T00:29:17.768Z,7.00
2022-12-28T00:31:46.266Z,7.00
2022-12-28T00:34:14.624Z,7.10
2022-12-28T00:37:10.638Z,7.10
2022-12-28T00:39:32.154Z,7.20
2022-12-28T00:42:00.568Z,7.20
2022-12-28T00:44:28.731Z,7.30
2022-12-28T00:46:56.925Z,7.30
2022-12-28T00:49:24.855Z,7.30
2022-12-28T00:51:54.215Z,7.20
2022-12-28T00:54:22.183Z,7.30
2022-12-28T00:56:51.490Z,7.40
2022-12-28T00:59:19.498Z,7.40
2022-12-28T01:01:47.576Z,7.40
2022-12-28T01:04:15.673Z,7.30
2022-12-28T01:06:43.734Z,7.30
2022-12-28T01:09:11.725Z,7.30
2022-12-28T01:11:39.762Z,7.30
2022-12-28T01:14:09.133Z,7.30
2022-12-28T01:16:37.723Z,7.30
2022-12-28T01:19:08.123Z,7.40
2022-12-28T01:21:37.110Z,7.50
2022-12-28T01:24:07.813Z,7.50
2022-12-28T01:26:36.177Z,7.50
2022-12-28T01:29:04.671Z,7.60
2022-12-28T01:31:36.795Z,7.60
2022-12-28T01:34:04.816Z,7.70
2022-12-28T01:36:35.893Z,7.80
2022-12-28T01:39:07.588Z,7.90
2022-12-28T01:41:39.859Z,7.80
2022-12-28T01:44:40.088Z,7.90
2022-12-28T01:47:13.420Z,7.90
2022-12-28T01:49:45.878Z,7.90
2022-12-28T01:52:19.678Z,7.90
2022-12-28T01:54:50.971Z,7.90
2022-12-28T01:57:22.922Z,7.80
2022-12-28T01:59:55.616Z,7.90
2022-12-28T02:02:25.431Z,8.00
2022-12-28T02:04:54.505Z,8.00
2022-12-28T02:07:30.581Z,8.00
2022-12-28T02:10:40.864Z,8.00
2022-12-28T02:12:48.268Z,8.10
2022-12-28T02:15:22.774Z,8.10
2022-12-28T02:17:53.207Z,8.10
2022-12-28T02:20:21.551Z,8.10
2022-12-28T02:23:25.855Z,8.10
2022-12-28T02:26:28.698Z,8.10
2022-12-28T02:29:22.119Z,8.10
2022-12-28T02:31:59.312Z,8.10
2022-12-28T02:34:33.565Z,8.20
2022-12-28T02:37:06.824Z,8.20
2022-12-28T02:39:41.162Z,8.20
2022-12-28T02:42:10.796Z,8.10
2022-12-28T02:44:57.852Z,8.10
2022-12-28T02:47:43.734Z,8.20
2022-12-28T02:50:15.854Z,8.20
2022-12-28T02:53:15.960Z,8.20
2022-12-28T02:56:07.632Z,8.20
2022-12-28T02:59:09.255Z,8.20
2022-12-28T03:02:21.280Z,8.30
2022-12-28T03:05:02.760Z,8.40
2022-12-28T03:07:56.651Z,8.40
2022-12-28T03:10:29.844Z,8.30
2022-12-28T03:13:04.534Z,8.40
2022-12-28T03:15:38.367Z,8.40
2022-12-28T03:18:30.955Z,8.40
2022-12-28T03:21:19.550Z,8.40
2022-12-28T03:24:07.031Z,8.40
2022-12-28T03:26:57.092Z,8.40
2022-12-28T03:29:45.631Z,8.40
2022-12-28T03:32:14.764Z,8.50
2022-12-28T03:34:44.580Z,8.50
2022-12-28T03:37:18.447Z,8.50
2022-12-28T03:39:52.297Z,8.60
2022-12-28T03:42:45.033Z,8.60
2022-12-28T03:45:44.326Z,8.60
2022-12-28T03:48:11.185Z,8.60
2022-12-28T03:50:43.751Z,8.60
2022-12-28T03:53:12.289Z,8.70
2022-12-28T03:55:43.248Z,8.70
2022-12-28T03:58:12.893Z,8.70
2022-12-28T04:00:40.875Z,8.70
2022-12-28T04:03:09.240Z,8.80
2022-12-28T04:05:37.266Z,8.80
2022-12-28T04:08:06.726Z,8.80
2022-12-28T04:10:35.109Z,8.80
2022-12-28T04:13:03.123Z,8.80
2022-12-28T04:15:39.210Z,8.80
2022-12-28T04:18:07.309Z,8.80
2022-12-28T04:20:35.441Z,8.90
2022-12-28T04:23:03.445Z,8.90
2022-12-28T04:25:32.865Z,8.80
2022-12-28T04:28:00.844Z,8.80
2022-12-28T04:30:52.053Z,8.80
2022-12-28T04:33:20.161Z,8.90
2022-12-28T04:35:50.295Z,8.90
2022-12-28T04:38:20.475Z,9.00
2022-12-28T04:40:49.818Z,9.00
2022-12-28T04:43:17.844Z,9.10
2022-12-28T04:45:45.786Z,9.00
2022-12-28T04:48:13.751Z,9.00
2022-12-28T04:50:41.924Z,9.00
2022-12-28T04:53:09.865Z,9.00
2022-12-28T04:55:37.843Z,8.80
2022-12-28T04:58:07.168Z,8.80
2022-12-28T05:00:35.211Z,8.80
2022-12-28T05:03:03.399Z,8.80
2022-12-28T05:05:33.267Z,8.80
2022-12-28T05:08:02.411Z,8.90
2022-12-28T05:10:30.723Z,9.00
2022-12-28T05:12:58.689Z,9.00
2022-12-28T05:15:28.093Z,9.00
2022-12-28T05:17:56.308Z,9.10
2022-12-28T05:20:24.267Z,9.10
2022-12-28T05:22:52.220Z,9.00
2022-12-28T05:25:20.196Z,9.10
2022-12-28T05:27:48.161Z,9.10
2022-12-28T05:30:16.160Z,9.20
2022-12-28T05:32:45.474Z,9.10
2022-12-28T05:35:13.454Z,9.10
2022-12-28T05:37:41.441Z,9.10
2022-12-28T05:40:11.484Z,9.10
2022-12-28T05:42:39.491Z,9.20
2022-12-28T05:45:08.591Z,9.20
2022-12-28T05:47:36.564Z,9.10
2022-12-28T05:50:06.684Z,9.10
2022-12-28T05:52:38.497Z,9.10
2022-12-28T05:55:07.377Z,9.20
2022-12-28T05:57:35.467Z,9.20
2022-12-28T06:00:03.979Z,9.20
2022-12-28T06:02:39.755Z,9.20
2022-12-28T06:05:10.086Z,9.20
2022-12-28T06:07:38.478Z,9.30
2022-12-28T06:10:07.393Z,9.20
2022-12-28T06:12:35.336Z,9.20
2022-12-28T06:15:03.367Z,9.30
2022-12-28T06:17:31.370Z,9.30
2022-12-28T06:19:59.321Z,9.20
2022-12-28T06:22:28.874Z,9.30
2022-12-28T06:24:56.814Z,9.20
2022-12-28T06:27:24.807Z,9.30
2022-12-28T06:29:52.747Z,9.30
2022-12-28T06:32:20.724Z,9.30
2022-12-28T06:34:48.740Z,9.20
2022-12-28T06:37:16.692Z,9.20
2022-12-28T06:39:46.028Z,9.20
2022-12-28T06:42:14.016Z,9.20
2022-12-28T06:44:44.751Z,9.20
2022-12-28T06:47:17.309Z,9.10
2022-12-28T06:49:46.042Z,9.00
2022-12-28T06:52:16.560Z,9.00
2022-12-28T06:54:50.147Z,9.00
2022-12-28T06:57:24.092Z,9.10
2022-12-28T06:59:57.647Z,9.10
2022-12-28T07:02:27.300Z,9.20
2022-12-28T07:04:57.680Z,9.20
2022-12-28T07:07:26.031Z,9.20
2022-12-28T07:09:55.371Z,9.20
2022-12-28T07:12:23.393Z,9.30
2022-12-28T07:14:51.444Z,9.20
2022-12-28T07:17:19.611Z,9.30
2022-12-28T07:19:47.663Z,9.20
2022-12-28T07:22:15.829Z,9.30
2022-12-28T07:24:43.927Z,9.30
2022-12-28T07:27:13.373Z,9.30
2022-12-28T07:29:42.467Z,9.30
2022-12-28T07:32:10.558Z,9.30
2022-12-28T07:34:41.143Z,9.30
2022-12-28T07:37:09.390Z,9.30
2022-12-28T07:39:37.399Z,9.30
2022-12-28T07:42:08.330Z,9.30
2022-12-28T07:44:38.367Z,9.40
2022-12-28T07:47:07.007Z,9.40
2022-12-28T07:49:35.371Z,9.30
2022-12-28T07:52:03.391Z,9.40
2022-12-28T07:54:31.500Z,9.30
2022-12-28T07:56:59.656Z,9.40
2022-12-28T07:59:31.168Z,9.30
2022-12-28T08:02:00.882Z,9.30
2022-12-28T08:04:29.169Z,9.30
2022-12-28T08:06:57.242Z,9.30
2022-12-28T08:09:25.306Z,9.30
2022-12-28T08:11:53.352Z,9.40
2022-12-28T08:14:21.605Z,9.30
2022-12-28T08:16:49.719Z,9.40
2022-12-28T08:19:19.046Z,9.40
2022-12-28T08:21:47.266Z,9.40
2022-12-28T08:24:17.084Z,9.40
2022-12-28T08:26:46.123Z,9.40
2022-12-28T08:29:17.391Z,9.30
2022-12-28T08:31:46.736Z,9.40
2022-12-28T08:34:16.596Z,9.40
2022-12-28T08:36:46.190Z,9.40
2022-12-28T08:39:14.797Z,9.50
2022-12-28T08:41:43.122Z,9.50
2022-12-28T08:44:11.217Z,9.40
2022-12-28T08:46:40.543Z,9.40
2022-12-28T08:49:08.686Z,9.50
2022-12-28T08:51:39.638Z,9.50
2022-12-28T08:54:09.951Z,9.50
2022-12-28T08:56:39.710Z,9.60
2022-12-28T08:59:08.337Z,9.60
2022-12-28T09:01:44.128Z,9.70
2022-12-28T09:04:14.816Z,9.70
2022-12-28T09:06:43.234Z,9.70
2022-12-28T09:09:15.137Z,9.70
2022-12-28T09:11:44.189Z,9.80
2022-12-28T09:14:22.089Z,9.80
2022-12-28T09:16:51.524Z,9.80
2022-12-28T09:19:19.598Z,9.80
2022-12-28T09:21:49.155Z,9.80
2022-12-28T09:24:18.843Z,9.90
2022-12-28T09:26:47.102Z,9.80
2022-12-28T09:29:15.898Z,9.80
2022-12-28T09:31:44.310Z,9.80
2022-12-28T09:37:02.380Z,9.80
2022-12-28T09:39:31.843Z,9.90
2022-12-28T09:42:03.175Z,9.90
2022-12-28T09:44:53.478Z,9.90
2022-12-28T09:47:29.298Z,9.90
2022-12-28T09:50:25.225Z,10.00
2022-12-28T09:53:12.474Z,10.00
2022-12-28T09:55:46.990Z,10.10
2022-12-28T09:58:17.350Z,10.10
2022-12-28T10:00:48.358Z,10.20
2022-12-28T10:03:19.781Z,10.20
2022-12-28T10:05:48.628Z,10.30
2022-12-28T10:08:21.350Z,10.30
2022-12-28T10:10:51.903Z,10.30
2022-12-28T10:13:53.115Z,10.30
2022-12-28T10:16:19.199Z,10.30
2022-12-28T10:18:48.280Z,10.40
2022-12-28T10:21:18.518Z,10.50
2022-12-28T10:24:29.090Z,10.70
2022-12-28T10:26:39.851Z,10.70
2022-12-28T10:29:17.679Z,10.60
2022-12-28T10:31:56.471Z,10.60
2022-12-28T10:34:25.765Z,10.50
2022-12-28T10:36:55.667Z,10.60
2022-12-28T10:39:26.479Z,10.60
2022-12-28T10:41:56.784Z,10.50
2022-12-28T10:44:43.660Z,10.60
2022-12-28T10:47:18.994Z,10.60
2022-12-28T10:50:18.459Z,10.60
2022-12-28T10:52:39.618Z,10.60
2022-12-28T10:55:28.990Z,10.70
2022-12-28T10:58:29.174Z,10.80
2022-12-28T11:01:00.913Z,10.80
2022-12-28T11:03:31.006Z,10.70
2022-12-28T11:06:27.798Z,10.70
2022-12-28T11:09:15.323Z,10.80
2022-12-28T11:11:44.712Z,10.70
2022-12-28T11:14:19.993Z,10.80
2022-12-28T11:16:48.035Z,10.70
2022-12-28T11:19:16.854Z,10.70
2022-12-28T11:21:45.224Z,10.80
2022-12-28T11:24:14.957Z,10.80
2022-12-28T11:26:45.309Z,10.80
2022-12-28T11:29:16.972Z,10.80
2022-12-28T11:31:50.484Z,10.80
2022-12-28T11:34:24.420Z,10.80
2022-12-28T11:36:53.039Z,10.80
2022-12-28T11:39:46.303Z,10.80
2022-12-28T11:42:57.093Z,10.80
2022-12-28T11:45:55.407Z,10.80
2022-12-28T11:48:58.356Z,10.80
2022-12-28T11:51:28.706Z,10.80
2022-12-28T11:54:03.006Z,10.90
2022-12-28T11:56:59.364Z,10.90
2022-12-28T11:59:29.560Z,10.90
2022-12-28T12:02:00.171Z,10.90
2022-12-28T12:04:34.781Z,10.80
2022-12-28T12:07:56.892Z,10.80
2022-12-28T12:10:36.076Z,10.80
2022-12-28T12:13:44.358Z,10.70
2022-12-28T12:16:30.780Z,10.70
2022-12-28T12:19:06.929Z,10.60
2022-12-28T12:21:38.361Z,10.60
2022-12-28T12:24:21.018Z,10.60
2022-12-28T12:26:53.306Z,10.60
2022-12-28T12:29:25.450Z,10.60
2022-12-28T12:32:01.475Z,10.40
2022-12-28T12:34:46.415Z,10.40
2022-12-28T12:37:45.456Z,10.40
2022-12-28T12:40:43.939Z,10.40
2022-12-28T12:43:31.335Z,10.40
2022-12-28T12:46:15.096Z,10.30
2022-12-28T12:49:06.035Z,10.30
2022-12-28T12:51:42.553Z,10.20
2022-12-28T12:54:25.424Z,10.20
2022-12-28T12:56:57.784Z,10.20
2022-12-28T12:59:56.941Z,10.30
2022-12-28T13:02:38.369Z,10.30
2022-12-28T13:05:07.211Z,10.30
2022-12-28T13:07:36.635Z,10.40
2022-12-28T13:10:06.477Z,10.40
2022-12-28T13:12:34.481Z,10.40
2022-12-28T13:15:09.137Z,10.40
2022-12-28T13:17:40.636Z,10.40
2022-12-28T13:20:11.034Z,10.50
2022-12-28T13:22:47.250Z,10.50
2022-12-28T13:25:28.481Z,10.50
2022-12-28T13:27:57.185Z,10.40
2022-12-28T13:30:26.568Z,10.50
2022-12-28T13:32:56.814Z,10.40
2022-12-28T13:35:26.515Z,10.40
2022-12-28T13:38:03.892Z,10.40
2022-12-28T13:40:33.493Z,10.50
2022-12-28T13:43:22.854Z,10.50
2022-12-28T13:45:53.853Z,10.40
2022-12-28T13:48:22.850Z,10.40
2022-12-28T13:50:52.768Z,10.40
2022-12-28T13:53:25.963Z,10.40
2022-12-28T13:55:57.185Z,10.40
2022-12-28T13:58:28.259Z,10.50
2022-12-28T14:00:59.698Z,10.40
2022-12-28T14:03:28.600Z,10.50
2022-12-28T14:06:00.901Z,10.50
2022-12-28T14:08:34.497Z,10.50
2022-12-28T14:11:03.368Z,10.50
2022-12-28T14:13:32.555Z,10.60
2022-12-28T14:16:01.334Z,10.50
2022-12-28T14:18:30.777Z,10.60
2022-12-28T14:20:59.656Z,10.60
2022-12-28T14:23:30.933Z,10.60
2022-12-28T14:26:01.048Z,10.60
2022-12-28T14:28:35.695Z,10.70
2022-12-28T14:31:06.227Z,10.60
2022-12-28T14:33:37.774Z,10.60
2022-12-28T14:36:08.794Z,10.60
2022-12-28T14:38:46.477Z,10.60
2022-12-28T14:41:19.864Z,10.70
2022-12-28T14:43:54.079Z,10.70
2022-12-28T14:46:32.284Z,10.70
2022-12-28T14:49:01.256Z,10.60
2022-12-28T14:51:33.294Z,10.70
2022-12-28T14:54:29.845Z,10.60
2022-12-28T14:57:03.503Z,10.70
2022-12-28T14:59:34.650Z,10.70
2022-12-28T15:02:03.481Z,10.70
2022-12-28T15:04:39.944Z,10.70
2022-12-28T15:07:10.066Z,10.70
2022-12-28T15:09:39.481Z,10.70
2022-12-28T15:12:15.326Z,10.70
2022-12-28T15:14:44.009Z,10.70
2022-12-28T15:17:12.171Z,10.70
2022-12-28T15:19:40.405Z,10.80
2022-12-28T15:22:08.363Z,10.70
2022-12-28T15:24:36.381Z,10.70
2022-12-28T15:27:06.402Z,10.80
2022-12-28T15:32:22.340Z,10.70
2022-12-28T15:34:50.303Z,10.70
2022-12-28T15:37:18.270Z,10.80
2022-12-28T15:39:46.267Z,10.90
2022-12-28T15:42:15.620Z,10.80
2022-12-28T15:44:43.640Z,10.90
2022-12-28T15:47:14.690Z,10.90
2022-12-28T15:49:42.851Z,10.90
2022-12-28T15:52:10.846Z,10.90
2022-12-28T15:54:42.498Z,10.90
2022-12-28T15:57:15.636Z,10.90
2022-12-28T15:59:46.769Z,10.90
2022-12-28T16:02:14.874Z,11.00
2022-12-28T16:04:42.921Z,10.90
2022-12-28T16:07:14.068Z,10.90
2022-12-28T16:09:42.062Z,10.90
2022-12-28T16:12:10.052Z,10.90
2022-12-28T16:14:39.658Z,10.90
2022-12-28T16:17:07.663Z,10.90
2022-12-28T16:19:35.657Z,10.90
2022-12-28T16:22:03.745Z,10.90
2022-12-28T16:24:33.006Z,10.90
2022-12-28T16:27:01.014Z,10.80
2022-12-28T16:29:28.991Z,10.80
2022-12-28T16:32:00.553Z,10.80
2022-12-28T16:34:29.230Z,10.90
2022-12-28T16:36:59.359Z,10.90
2022-12-28T16:39:28.951Z,10.80
2022-12-28T16:41:57.473Z,10.70
2022-12-28T16:44:29.340Z,10.70
2022-12-28T16:46:59.715Z,10.60
2022-12-28T16:49:28.470Z,10.50
2022-12-28T16:51:57.152Z,10.40
2022-12-28T16:54:27.490Z,10.30
2022-12-28T16:56:55.803Z,10.30
2022-12-28T16:59:25.513Z,10.30
2022-12-28T17:01:54.212Z,10.20
2022-12-28T17:04:24.085Z,10.20
2022-12-28T17:06:52.703Z,10.20
2022-12-28T17:09:21.887Z,10.20
2022-12-28T17:11:51.071Z,10.20
2022-12-28T17:17:08.526Z,10.40
2022-12-28T17:19:37.914Z,10.30
2022-12-28T17:22:06.105Z,10.30
2022-12-28T17:24:34.083Z,10.20
2022-12-28T17:27:07.752Z,10.30
2022-12-28T17:29:38.088Z,10.30
2022-12-28T17:32:07.419Z,10.30
2022-12-28T17:34:37.378Z,10.20
2022-12-28T17:37:05.603Z,10.20
2022-12-28T17:39:39.660Z,10.20
2022-12-28T17:42:09.104Z,10.20
2022-12-28T17:44:37.090Z,10.20
2022-12-28T17:47:05.221Z,10.20
2022-12-28T17:49:33.235Z,10.20
2022-12-28T17:52:02.631Z,10.20
2022-12-28T17:54:30.628Z,10.20
2022-12-28T17:56:58.622Z,10.20
2022-12-28T17:59:26.831Z,10.10
2022-12-28T18:01:54.939Z,10.20
2022-12-28T18:04:22.941Z,10.10
2022-12-28T18:06:50.954Z,10.00
2022-12-28T18:09:25.709Z,10.00
2022-12-28T18:11:56.039Z,9.90
2022-12-28T18:14:24.054Z,9.90
2022-12-28T18:16:52.124Z,9.80
2022-12-28T18:19:20.280Z,9.80
2022-12-28T18:21:48.862Z,9.70
2022-12-28T18:24:20.641Z,9.60
2022-12-28T18:26:50.142Z,9.50
2022-12-28T18:29:18.187Z,9.50
2022-12-28T18:31:47.261Z,9.50
2022-12-28T18:34:15.447Z,9.40
2022-12-28T18:36:43.565Z,9.40
2022-12-28T18:39:11.539Z,9.40
2022-12-28T18:41:39.572Z,9.40
2022-12-28T18:44:08.994Z,9.40
2022-12-28T18:46:37.467Z,9.30
2022-12-28T18:49:05.547Z,9.30
2022-12-28T18:51:33.620Z,9.30
2022-12-28T18:54:01.978Z,9.30
2022-12-28T18:56:30.501Z,9.30
2022-12-28T18:58:59.040Z,9.30
2022-12-28T19:04:18.391Z,9.30
2022-12-28T19:06:46.569Z,9.30
2022-12-28T19:09:15.313Z,9.40
2022-12-28T19:11:43.948Z,9.40
2022-12-28T19:14:14.271Z,9.50
2022-12-28T19:16:44.975Z,9.40
2022-12-28T19:19:13.139Z,9.40
2022-12-28T19:21:42.694Z,9.40
2022-12-28T19:24:14.469Z,9.40
2022-12-28T19:26:42.745Z,9.40
2022-12-28T19:29:11.939Z,9.40
2022-12-28T19:31:39.980Z,9.40
2022-12-28T19:34:09.319Z,9.50
2022-12-28T19:36:40.375Z,9.60
2022-12-28T19:39:08.381Z,9.70
2022-12-28T19:41:36.495Z,9.70
2022-12-28T19:44:04.677Z,9.90
2022-12-28T19:46:32.821Z,10.00
2022-12-28T19:49:02.574Z,10.00
2022-12-28T19:51:33.147Z,10.00
2022-12-28T19:54:01.245Z,10.10
2022-12-28T19:56:29.312Z,10.10
2022-12-28T19:59:05.028Z,10.20
2022-12-28T20:01:34.444Z,10.30
2022-12-28T20:04:07.153Z,10.30
2022-12-28T20:06:39.847Z,10.30
2022-12-28T20:09:07.843Z,10.50
2022-12-28T20:11:36.388Z,10.50
2022-12-28T20:14:05.262Z,10.50
2022-12-28T20:16:35.022Z,10.50
2022-12-28T20:19:06.464Z,10.70
2022-12-28T20:21:34.861Z,10.70
2022-12-28T20:24:04.501Z,10.80
2022-12-28T20:26:32.720Z,10.80
2022-12-28T20:29:02.437Z,10.90
2022-12-28T20:31:31.063Z,10.90
2022-12-28T20:33:59.231Z,11.00
2022-12-28T20:36:29.080Z,11.00
2022-12-28T20:38:57.680Z,11.00
2022-12-28T20:41:46.487Z,10.90
2022-12-28T20:44:17.551Z,11.00
2022-12-28T20:46:46.013Z,11.00
2022-12-28T20:49:14.572Z,11.10
2022-12-28T20:51:43.105Z,11.10
2022-12-28T20:54:11.380Z,11.10
2022-12-28T20:56:41.902Z,11.20
2022-12-28T20:59:10.359Z,11.20
2022-12-28T21:01:39.756Z,11.20
2022-12-28T21:04:08.583Z,11.20
2022-12-28T21:06:37.075Z,11.30
2022-12-28T21:09:05.259Z,11.30
2022-12-28T21:11:33.291Z,11.30
2022-12-28T21:14:02.653Z,11.30
2022-12-28T21:16:30.697Z,11.40
2022-12-28T21:18:58.753Z,11.30
2022-12-28T21:21:26.783Z,11.40
2022-12-28T21:23:54.777Z,11.40
2022-12-28T21:26:23.344Z,11.40
2022-12-28T21:28:51.442Z,11.50
2022-12-28T21:31:20.919Z,11.40
2022-12-28T21:33:48.936Z,11.50
2022-12-28T21:36:19.064Z,11.50
2022-12-28T21:38:48.259Z,11.50
2022-12-28T21:41:38.262Z,11.50
2022-12-28T21:44:06.907Z,11.50
2022-12-28T21:46:36.784Z,11.50
2022-12-28T21:49:05.371Z,11.50
2022-12-28T21:51:35.144Z,11.50
2022-12-28T21:54:05.338Z,11.50
2022-12-28T21:56:34.763Z,11.60
2022-12-28T21:59:03.392Z,11.50
2022-12-28T22:01:49.539Z,11.50
2022-12-28T22:04:39.012Z,11.50
2022-12-28T22:07:08.395Z,11.50
2022-12-28T22:09:54.584Z,11.40
2022-12-28T22:12:37.931Z,11.50
2022-12-28T22:15:29.261Z,11.50
2022-12-28T22:17:58.971Z,11.40
2022-12-28T22:20:29.207Z,11.50
2022-12-28T22:22:58.874Z,11.40
2022-12-28T22:25:28.691Z,11.50
2022-12-28T22:27:57.457Z,11.40
2022-12-28T22:30:26.116Z,11.40
2022-12-28T22:32:54.190Z,11.50
2022-12-28T22:35:22.782Z,11.50
2022-12-28T22:37:52.153Z,11.50
2022-12-28T22:40:20.666Z,11.50
2022-12-28T22:42:50.586Z,11.50
2022-12-28T22:45:20.188Z,11.60
2022-12-28T22:47:48.563Z,11.60
2022-12-28T22:50:18.984Z,11.60
2022-12-28T22:52:47.085Z,11.60
2022-12-28T22:55:16.696Z,11.60
2022-12-28T22:57:44.793Z,11.60
2022-12-28T23:00:15.265Z,11.70
2022-12-28T23:02:44.630Z,11.70
2022-12-28T23:05:12.697Z,11.70
2022-12-28T23:07:40.730Z,11.70
2022-12-28T23:10:10.301Z,11.70
2022-12-28T23:12:39.697Z,11.80
2022-12-28T23:15:18.580Z,11.80
2022-12-28T23:17:47.869Z,11.80
2022-12-28T23:20:34.042Z,11.80
2022-12-28T23:23:19.664Z,11.80
2022-12-28T23:26:05.355Z,11.90
2022-12-28T23:28:36.750Z,11.90
2022-12-28T23:31:04.940Z,11.80
2022-12-28T23:33:32.948Z,11.90
2022-12-28T23:36:03.337Z,11.90
2022-12-28T23:38:32.381Z,11.90
2022-12-28T23:41:14.249Z,11.80
2022-12-28T23:43:43.693Z,11.70
2022-12-28T23:46:11.713Z,11.70
2022-12-28T23:48:39.746Z,11.60
2022-12-28T23:51:08.941Z,11.50
2022-12-28T23:53:37.372Z,11.40
2022-12-28T23:56:05.739Z,11.50
2022-12-28T23:58:33.728Z,11.60
